createdAt,value
2018-12-21T00:01:49.410Z,99.17
2018-12-21T00:04:16.913Z,98.77
2018-12-21T00:06:44.426Z,94.90
2018-12-21T00:09:12.217Z,95.80
2018-12-21T00:11:40.105Z,101.67
2018-12-21T00:14:07.939Z,100.17
2018-12-21T00:16:35.461Z,94.73
2018-12-21T00:19:02.952Z,88.47
2018-12-21T00:21:30.666Z,90.77
2018-12-21T00:23:58.174Z,84.03
2018-12-21T00:26:25.673Z,83.83
2018-12-21T00:28:53.186Z,83.40
2018-12-21T00:31:26.577Z,83.13
2018-12-21T00:33:59.871Z,86.37
2018-12-21T00:36:33.145Z,83.47
2018-12-21T00:39:06.375Z,83.70
2018-12-21T00:41:34.189Z,82.47
2018-12-21T00:44:03.666Z,82.83
2018-12-21T00:46:32.185Z,77.40
2018-12-21T00:49:00.197Z,73.70
2018-12-21T00:51:30.399Z,74.40
2018-12-21T00:53:57.202Z,75.93
2018-12-21T00:56:24.690Z,71.07
2018-12-21T00:58:52.195Z,71.23
2018-12-21T01:01:19.709Z,66.43
2018-12-21T01:03:47.225Z,70.73
2018-12-21T01:06:14.741Z,67.00
2018-12-21T01:08:42.389Z,67.57
2018-12-21T01:11:09.901Z,67.87
2018-12-21T01:13:39.107Z,71.97
2018-12-21T01:16:06.597Z,65.90
2018-12-21T01:18:34.101Z,69.60
2018-12-21T01:21:01.646Z,67.57
2018-12-21T01:23:29.168Z,67.37
2018-12-21T01:25:56.669Z,62.33
2018-12-21T01:28:24.170Z,72.80
2018-12-21T01:30:52.022Z,74.30
2018-12-21T01:33:19.625Z,77.23
2018-12-21T01:35:47.144Z,75.67
2018-12-21T01:38:14.642Z,83.13
2018-12-21T01:40:44.270Z,99.23
2018-12-21T01:43:14.021Z,112.73
2018-12-21T01:45:42.043Z,110.47
2018-12-21T01:48:09.735Z,107.37
2018-12-21T01:50:37.253Z,108.60
2018-12-21T01:53:04.758Z,106.80
2018-12-21T01:55:32.252Z,104.80
2018-12-21T01:57:59.763Z,99.93
2018-12-21T02:00:27.563Z,93.87
2018-12-21T02:02:55.066Z,93.87
2018-12-21T02:05:24.928Z,103.60
2018-12-21T02:07:54.993Z,98.33
2018-12-21T02:10:22.480Z,91.53
2018-12-21T02:12:49.987Z,93.47
2018-12-21T02:15:17.505Z,118.33
2018-12-21T02:17:45.874Z,123.53
2018-12-21T02:20:15.633Z,114.60
2018-12-21T02:22:45.472Z,113.37
2018-12-21T02:25:15.513Z,110.40
2018-12-21T02:27:45.458Z,114.63
2018-12-21T02:30:14.797Z,111.23
2018-12-21T02:32:44.288Z,112.70
2018-12-21T02:35:13.747Z,105.00
2018-12-21T02:37:43.294Z,107.13
2018-12-21T02:40:13.152Z,107.73
2018-12-21T02:42:42.607Z,109.53
2018-12-21T02:45:12.410Z,100.90
2018-12-21T02:47:41.277Z,156.57
2018-12-21T02:50:11.218Z,163.07
2018-12-21T02:52:40.918Z,145.40
2018-12-21T02:55:10.971Z,133.10
2018-12-21T02:57:40.511Z,138.97
2018-12-21T03:00:10.391Z,132.00
2018-12-21T03:02:38.634Z,139.63
2018-12-21T03:05:07.892Z,132.80
2018-12-21T03:07:37.632Z,132.30
2018-12-21T03:10:08.258Z,158.87
2018-12-21T03:12:36.858Z,169.10
2018-12-21T03:15:06.693Z,148.43
2018-12-21T03:17:36.888Z,146.03
2018-12-21T03:20:06.873Z,146.77
2018-12-21T03:22:36.808Z,141.50
2018-12-21T03:25:06.277Z,137.17
2018-12-21T03:27:36.252Z,138.80
2018-12-21T03:30:06.394Z,135.47
2018-12-21T03:32:36.387Z,139.67
2018-12-21T03:35:06.093Z,138.57
2018-12-21T03:37:35.201Z,131.67
2018-12-21T03:40:05.592Z,129.70
2018-12-21T03:42:34.676Z,127.97
2018-12-21T03:45:04.480Z,128.60
2018-12-21T03:47:33.663Z,122.57
2018-12-21T03:50:03.583Z,123.67
2018-12-21T03:52:32.455Z,126.70
2018-12-21T03:55:01.537Z,122.40
2018-12-21T03:57:31.673Z,114.70
2018-12-21T04:00:00.216Z,119.63
2018-12-21T04:02:28.671Z,120.50
2018-12-21T04:04:57.162Z,115.23
2018-12-21T04:07:24.691Z,120.80
2018-12-21T04:09:52.197Z,106.93
2018-12-21T04:12:19.713Z,107.77
2018-12-21T04:14:47.334Z,103.83
2018-12-21T04:17:14.874Z,101.63
2018-12-21T04:19:42.414Z,107.57
2018-12-21T04:22:10.299Z,98.13
2018-12-21T04:24:37.803Z,100.97
2018-12-21T04:27:05.290Z,95.20
2018-12-21T04:29:32.811Z,96.63
2018-12-21T04:32:00.307Z,92.00
2018-12-21T04:34:27.839Z,92.77
2018-12-21T04:36:55.340Z,89.73
2018-12-21T04:39:22.840Z,89.23
2018-12-21T04:41:50.346Z,89.77
2018-12-21T04:44:17.856Z,87.00
2018-12-21T04:46:45.343Z,91.33
2018-12-21T04:49:13.313Z,85.10
2018-12-21T04:51:41.293Z,85.40
2018-12-21T04:54:08.812Z,81.57
2018-12-21T04:56:36.309Z,82.17
2018-12-21T04:59:03.857Z,80.80
2018-12-21T05:01:31.962Z,77.87
2018-12-21T05:03:59.842Z,76.47
2018-12-21T05:06:27.331Z,77.10
2018-12-21T05:08:54.951Z,76.50
2018-12-21T05:11:22.455Z,73.27
2018-12-21T05:13:49.952Z,71.73
2018-12-21T05:16:17.472Z,71.27
2018-12-21T05:18:44.957Z,71.17
2018-12-21T05:21:12.581Z,69.67
2018-12-21T05:23:40.106Z,68.37
2018-12-21T05:26:08.064Z,68.17
2018-12-21T05:28:35.908Z,66.73
2018-12-21T05:31:03.789Z,64.50
2018-12-21T05:33:31.341Z,62.47
2018-12-21T05:35:58.858Z,64.07
2018-12-21T05:38:26.346Z,62.43
2018-12-21T05:40:53.847Z,61.27
2018-12-21T05:43:21.380Z,59.63
2018-12-21T05:45:48.906Z,60.07
2018-12-21T05:48:16.532Z,60.17
2018-12-21T05:50:44.071Z,59.33
2018-12-21T05:53:12.356Z,58.70
2018-12-21T05:55:40.269Z,57.83
2018-12-21T05:58:07.781Z,54.30
2018-12-21T06:00:35.272Z,55.27
2018-12-21T06:03:02.849Z,56.07
2018-12-21T06:05:30.358Z,55.07
2018-12-21T06:07:57.849Z,53.23
2018-12-21T06:10:25.353Z,53.20
2018-12-21T06:12:52.915Z,52.60
2018-12-21T06:15:20.540Z,53.70
2018-12-21T06:17:48.051Z,50.43
2018-12-21T06:20:15.608Z,51.53
2018-12-21T06:22:43.195Z,50.23
2018-12-21T06:25:10.681Z,50.63
2018-12-21T06:27:38.181Z,50.97
2018-12-21T06:30:07.321Z,57.67
2018-12-21T06:32:34.837Z,58.57
2018-12-21T06:35:02.342Z,57.97
2018-12-21T06:37:29.844Z,59.00
2018-12-21T06:39:57.328Z,57.37
2018-12-21T06:42:24.829Z,59.07
2018-12-21T06:44:52.347Z,54.33
2018-12-21T06:47:20.549Z,55.53
2018-12-21T06:49:48.406Z,55.20
2018-12-21T06:52:15.903Z,55.33
2018-12-21T06:54:43.401Z,58.47
2018-12-21T06:57:10.901Z,55.10
2018-12-21T06:59:38.405Z,57.03
2018-12-21T07:02:06.557Z,56.13
2018-12-21T07:04:34.084Z,54.13
2018-12-21T07:07:01.717Z,54.63
2018-12-21T07:09:29.205Z,53.00
2018-12-21T07:11:56.699Z,50.40
2018-12-21T07:14:24.207Z,54.93
2018-12-21T07:16:51.743Z,58.10
2018-12-21T07:19:19.243Z,48.73
2018-12-21T07:21:46.737Z,23.33
2018-12-21T07:24:14.242Z,30.70
2018-12-21T07:26:42.013Z,32.53
2018-12-21T07:29:09.506Z,30.20
2018-12-21T07:31:37.145Z,29.40
2018-12-21T07:34:04.737Z,32.17
2018-12-21T07:36:32.252Z,30.83
2018-12-21T07:38:59.745Z,30.83
2018-12-21T07:41:27.229Z,26.90
2018-12-21T07:43:54.734Z,31.27
2018-12-21T07:46:22.669Z,28.40
2018-12-21T07:48:50.238Z,25.80
2018-12-21T07:51:17.740Z,25.90
2018-12-21T07:53:45.250Z,26.10
2018-12-21T07:56:12.757Z,26.87
2018-12-21T07:58:40.251Z,25.03
2018-12-21T08:01:07.808Z,24.00
2018-12-21T08:03:35.530Z,21.37
2018-12-21T08:06:03.035Z,21.83
2018-12-21T08:08:30.598Z,20.87
2018-12-21T08:10:58.094Z,20.87
2018-12-21T08:13:25.601Z,21.47
2018-12-21T08:15:53.096Z,19.23
2018-12-21T08:18:21.386Z,18.57
2018-12-21T08:20:48.955Z,19.07
2018-12-21T08:23:17.067Z,18.70
2018-12-21T08:25:44.642Z,17.83
2018-12-21T08:28:12.169Z,20.47
2018-12-21T08:30:39.682Z,17.30
2018-12-21T08:33:07.209Z,17.80
2018-12-21T08:35:34.703Z,16.97
2018-12-21T08:38:02.201Z,16.37
2018-12-21T08:40:29.702Z,15.13
2018-12-21T08:42:57.197Z,17.57
2018-12-21T08:45:24.698Z,15.10
2018-12-21T08:47:52.265Z,15.37
2018-12-21T08:50:19.784Z,15.30
2018-12-21T08:52:47.285Z,14.70
2018-12-21T08:55:14.781Z,14.77
2018-12-21T08:57:42.305Z,13.77
2018-12-21T09:00:10.835Z,12.60
2018-12-21T09:02:38.333Z,14.07
2018-12-21T09:05:06.274Z,12.73
2018-12-21T09:07:33.773Z,13.43
2018-12-21T09:10:01.262Z,13.57
2018-12-21T09:12:28.762Z,12.80
2018-12-21T09:14:56.271Z,12.50
2018-12-21T09:17:23.757Z,12.70
2018-12-21T09:19:51.260Z,12.00
2018-12-21T09:22:18.945Z,12.07
2018-12-21T09:24:46.444Z,11.93
2018-12-21T09:27:13.972Z,11.27
2018-12-21T09:29:41.734Z,12.03
2018-12-21T09:32:09.497Z,11.30
2018-12-21T09:34:37.004Z,11.00
2018-12-21T09:37:04.505Z,12.17
2018-12-21T09:39:32.018Z,11.87
2018-12-21T09:41:59.604Z,11.50
2018-12-21T09:44:27.231Z,11.33
2018-12-21T09:46:54.826Z,10.17
2018-12-21T09:49:22.898Z,10.40
2018-12-21T09:51:50.457Z,9.57
2018-12-21T09:54:18.025Z,9.57
2018-12-21T09:56:45.518Z,9.87
2018-12-21T09:59:13.281Z,9.60
2018-12-21T10:01:41.065Z,9.43
2018-12-21T10:04:08.545Z,13.47
2018-12-21T10:06:36.122Z,17.43
2018-12-21T10:09:04.902Z,20.27
2018-12-21T10:11:32.444Z,20.33
2018-12-21T10:13:59.934Z,14.37
2018-12-21T10:16:27.430Z,30.07
2018-12-21T10:18:54.933Z,28.53
2018-12-21T10:21:22.450Z,24.20
2018-12-21T10:23:50.134Z,35.00
2018-12-21T10:26:17.675Z,27.87
2018-12-21T10:28:45.179Z,40.80
2018-12-21T10:31:12.673Z,56.17
2018-12-21T10:33:40.176Z,50.47
2018-12-21T10:36:07.682Z,52.37
2018-12-21T10:38:35.210Z,42.87
2018-12-21T10:41:02.710Z,92.77
2018-12-21T10:43:30.251Z,73.30
2018-12-21T10:45:58.517Z,70.53
2018-12-21T10:48:26.022Z,94.87
2018-12-21T10:50:53.516Z,71.07
2018-12-21T10:53:21.008Z,88.30
2018-12-21T10:55:48.529Z,81.40
2018-12-21T10:58:16.016Z,71.20
2018-12-21T11:00:43.562Z,48.67
2018-12-21T11:03:11.052Z,52.23
2018-12-21T11:05:38.565Z,59.63
2018-12-21T11:08:06.050Z,55.17
2018-12-21T11:10:33.558Z,57.53
2018-12-21T11:13:01.040Z,58.77
2018-12-21T11:15:28.557Z,54.67
2018-12-21T11:17:56.055Z,66.37
2018-12-21T11:20:23.554Z,71.77
2018-12-21T11:22:51.067Z,70.43
2018-12-21T11:25:18.563Z,61.83
2018-12-21T11:27:46.085Z,92.90
2018-12-21T11:30:13.593Z,95.23
2018-12-21T11:32:41.093Z,90.63
2018-12-21T11:35:08.621Z,93.10
2018-12-21T11:37:36.233Z,96.27
2018-12-21T11:40:04.374Z,94.10
2018-12-21T11:42:31.886Z,96.27
2018-12-21T11:44:59.386Z,98.43
2018-12-21T11:47:26.910Z,116.70
2018-12-21T11:49:55.181Z,129.67
2018-12-21T11:52:23.132Z,135.70
2018-12-21T11:54:50.639Z,138.40
2018-12-21T11:57:18.134Z,129.37
2018-12-21T11:59:45.646Z,128.60
2018-12-21T12:02:19.491Z,129.30
2018-12-21T12:04:43.181Z,128.43
2018-12-21T12:07:10.695Z,126.57
2018-12-21T12:09:38.240Z,123.73
2018-12-21T12:12:05.758Z,117.97
2018-12-21T12:14:33.294Z,116.83
2018-12-21T12:17:00.792Z,116.37
2018-12-21T12:19:28.293Z,113.67
2018-12-21T12:21:55.898Z,113.20
2018-12-21T12:24:23.392Z,105.77
2018-12-21T12:26:50.910Z,103.60
2018-12-21T12:29:18.403Z,102.63
2018-12-21T12:31:45.930Z,102.47
2018-12-21T12:34:13.446Z,106.13
2018-12-21T12:36:40.940Z,129.17
2018-12-21T12:39:08.456Z,135.33
2018-12-21T12:41:35.947Z,133.63
2018-12-21T12:44:03.456Z,139.10
2018-12-21T12:46:30.962Z,127.47
2018-12-21T12:48:58.506Z,142.37
2018-12-21T12:51:26.005Z,160.07
2018-12-21T12:53:53.531Z,175.50
2018-12-21T12:56:21.032Z,164.57
2018-12-21T12:58:48.528Z,164.17
2018-12-21T13:01:16.037Z,160.67
2018-12-21T13:03:43.725Z,156.50
2018-12-21T13:06:11.237Z,152.77
2018-12-21T13:08:39.342Z,154.70
2018-12-21T13:11:06.845Z,151.20
2018-12-21T13:13:34.362Z,146.87
2018-12-21T13:16:01.877Z,139.70
2018-12-21T13:18:29.382Z,139.83
2018-12-21T13:20:56.897Z,136.10
2018-12-21T13:23:24.406Z,148.27
2018-12-21T13:25:51.911Z,146.47
2018-12-21T13:28:19.411Z,143.13
2018-12-21T13:30:49.193Z,132.33
2018-12-21T13:33:19.082Z,132.67
2018-12-21T13:35:51.186Z,144.87
2018-12-21T13:38:21.177Z,158.60
2018-12-21T13:40:51.183Z,166.63
2018-12-21T13:43:21.519Z,163.30
2018-12-21T13:45:51.636Z,161.57
2018-12-21T13:48:21.414Z,152.97
2018-12-21T13:50:51.491Z,150.23
2018-12-21T13:53:21.241Z,143.50
2018-12-21T13:55:48.743Z,139.80
2018-12-21T13:58:16.255Z,139.33
2018-12-21T14:00:44.071Z,138.40
2018-12-21T14:03:11.606Z,136.47
2018-12-21T14:05:39.122Z,133.67
2018-12-21T14:08:07.001Z,130.50
2018-12-21T14:10:34.769Z,130.80
2018-12-21T14:13:02.261Z,127.80
2018-12-21T14:15:29.785Z,124.70
2018-12-21T14:17:57.458Z,127.80
2018-12-21T14:20:24.971Z,123.87
2018-12-21T14:22:54.979Z,132.33
2018-12-21T14:25:28.765Z,139.33
2018-12-21T14:27:54.486Z,142.07
2018-12-21T14:30:21.993Z,140.70
2018-12-21T14:32:49.553Z,136.53
2018-12-21T14:35:17.050Z,139.43
2018-12-21T14:37:44.571Z,144.27
2018-12-21T14:40:12.084Z,144.27
2018-12-21T14:42:39.598Z,158.50
2018-12-21T14:45:07.136Z,170.97
2018-12-21T14:47:34.653Z,174.33
2018-12-21T14:50:02.159Z,168.80
2018-12-21T14:52:29.672Z,172.07
2018-12-21T14:54:57.178Z,179.60
2018-12-21T14:57:24.693Z,180.50
2018-12-21T14:59:52.193Z,172.13
2018-12-21T15:02:19.722Z,170.27
2018-12-21T15:04:47.242Z,168.90
2018-12-21T15:07:14.757Z,182.10
2018-12-21T15:09:42.309Z,189.60
2018-12-21T15:12:09.888Z,220.00
2018-12-21T15:14:37.434Z,250.27
2018-12-21T15:17:05.721Z,217.40
2018-12-21T15:19:33.219Z,204.90
2018-12-21T15:22:00.754Z,195.60
2018-12-21T15:24:28.283Z,190.43
2018-12-21T15:26:55.796Z,178.03
2018-12-21T15:29:23.302Z,181.07
2018-12-21T15:31:50.837Z,178.53
2018-12-21T15:34:18.477Z,168.60
2018-12-21T15:36:45.970Z,159.20
2018-12-21T15:39:13.503Z,149.70
2018-12-21T15:41:41.001Z,144.60
2018-12-21T15:44:09.082Z,142.63
2018-12-21T15:46:36.668Z,136.07
2018-12-21T15:49:04.171Z,130.97
2018-12-21T15:51:31.753Z,126.43
2018-12-21T15:53:59.277Z,125.50
2018-12-21T15:56:26.775Z,125.93
2018-12-21T15:58:54.990Z,126.17
2018-12-21T16:01:24.901Z,124.40
2018-12-21T16:03:55.118Z,122.93
2018-12-21T16:06:24.763Z,122.37
2018-12-21T16:08:54.677Z,120.60
2018-12-21T16:11:24.600Z,117.07
2018-12-21T16:13:54.735Z,117.40
2018-12-21T16:16:24.847Z,114.70
2018-12-21T16:18:55.215Z,108.40
2018-12-21T16:21:25.224Z,109.27
2018-12-21T16:23:55.086Z,113.17
2018-12-21T16:26:25.305Z,107.17
2018-12-21T16:28:53.354Z,104.93
2018-12-21T16:31:20.857Z,105.40
2018-12-21T16:33:48.372Z,105.60
2018-12-21T16:36:15.880Z,104.57
2018-12-21T16:38:43.406Z,119.10
2018-12-21T16:41:10.893Z,140.33
2018-12-21T16:43:38.405Z,144.00
2018-12-21T16:46:05.992Z,152.57
2018-12-21T16:48:33.497Z,170.20
2018-12-21T16:51:01.015Z,175.57
2018-12-21T16:53:28.530Z,175.67
2018-12-21T16:55:56.044Z,174.43
2018-12-21T16:58:23.558Z,204.03
2018-12-21T17:00:51.049Z,200.43
2018-12-21T17:03:18.572Z,187.20
2018-12-21T17:05:46.761Z,165.47
2018-12-21T17:08:14.277Z,144.87
2018-12-21T17:10:41.776Z,128.03
2018-12-21T17:13:09.298Z,146.47
2018-12-21T17:15:36.823Z,145.13
2018-12-21T17:18:04.702Z,135.60
2018-12-21T17:20:32.358Z,124.67
2018-12-21T17:23:00.813Z,118.60
2018-12-21T17:25:28.555Z,116.77
2018-12-21T17:27:58.604Z,137.90
2018-12-21T17:30:28.284Z,137.90
2018-12-21T17:32:57.811Z,144.03
2018-12-21T17:35:27.555Z,130.73
2018-12-21T17:37:57.705Z,122.87
2018-12-21T17:40:27.779Z,116.27
2018-12-21T17:42:55.262Z,112.77
2018-12-21T17:45:22.778Z,111.70
2018-12-21T17:47:50.266Z,107.67
2018-12-21T17:50:17.796Z,106.70
2018-12-21T17:52:45.311Z,105.37
2018-12-21T17:55:12.852Z,104.73
2018-12-21T17:57:40.450Z,105.30
2018-12-21T18:00:12.292Z,102.93
2018-12-21T18:02:39.928Z,103.17
2018-12-21T18:05:07.998Z,100.43
2018-12-21T18:07:35.506Z,97.83
2018-12-21T18:10:05.755Z,97.90
2018-12-21T18:12:33.259Z,98.87
2018-12-21T18:15:00.772Z,116.97
2018-12-21T18:17:28.294Z,134.83
2018-12-21T18:19:55.806Z,134.47
2018-12-21T18:22:23.582Z,120.97
2018-12-21T18:24:51.096Z,129.30
2018-12-21T18:27:18.645Z,135.77
2018-12-21T18:29:46.158Z,130.97
2018-12-21T18:32:15.416Z,126.63
2018-12-21T18:34:42.938Z,141.83
2018-12-21T18:37:10.445Z,166.03
2018-12-21T18:39:37.955Z,168.70
2018-12-21T18:42:05.801Z,177.80
2018-12-21T18:44:33.478Z,178.63
2018-12-21T18:47:00.974Z,180.53
2018-12-21T18:49:28.509Z,174.50
2018-12-21T18:51:56.040Z,175.40
2018-12-21T18:54:23.567Z,169.33
2018-12-21T18:56:52.519Z,162.13
2018-12-21T18:59:20.042Z,162.33
2018-12-21T19:01:47.546Z,155.80
2018-12-21T19:04:15.862Z,153.63
2018-12-21T19:06:43.368Z,153.03
2018-12-21T19:09:10.945Z,150.53
2018-12-21T19:11:38.458Z,146.13
2018-12-21T19:14:06.270Z,162.47
2018-12-21T19:16:34.371Z,187.80
2018-12-21T19:19:01.916Z,192.47
2018-12-21T19:21:29.424Z,210.57
2018-12-21T19:23:57.022Z,202.23
2018-12-21T19:26:24.515Z,164.07
2018-12-21T19:28:52.034Z,160.00
2018-12-21T19:31:19.526Z,157.77
2018-12-21T19:33:47.033Z,152.63
2018-12-21T19:36:14.552Z,178.47
2018-12-21T19:38:42.069Z,197.37
2018-12-21T19:41:11.828Z,187.17
2018-12-21T19:43:39.121Z,170.13
2018-12-21T19:46:06.631Z,183.00
2018-12-21T19:48:34.122Z,169.47
2018-12-21T19:51:01.641Z,170.37
2018-12-21T19:53:29.140Z,170.37
2018-12-21T19:55:56.786Z,171.53
2018-12-21T19:58:24.367Z,189.70
2018-12-21T20:00:51.881Z,207.03
2018-12-21T20:03:19.498Z,196.73
2018-12-21T20:05:46.999Z,206.67
2018-12-21T20:08:14.502Z,209.30
2018-12-21T20:10:42.016Z,181.83
2018-12-21T20:13:09.534Z,182.60
2018-12-21T20:15:37.035Z,177.03
2018-12-21T20:18:04.628Z,173.37
2018-12-21T20:20:32.134Z,179.47
2018-12-21T20:22:59.637Z,173.57
2018-12-21T20:25:27.619Z,174.93
2018-12-21T20:27:55.193Z,172.37
2018-12-21T20:30:22.697Z,165.33
2018-12-21T20:32:50.612Z,176.93
2018-12-21T20:35:18.249Z,225.73
2018-12-21T20:37:45.842Z,237.70
2018-12-21T20:40:13.664Z,219.27
2018-12-21T20:42:41.173Z,201.87
2018-12-21T20:45:10.428Z,218.00
2018-12-21T20:47:37.942Z,204.43
2018-12-21T20:50:10.181Z,200.23
2018-12-21T20:52:37.682Z,202.47
2018-12-21T20:55:08.451Z,196.40
2018-12-21T20:57:37.397Z,186.53
2018-12-21T21:00:10.743Z,185.50
2018-12-21T21:02:38.333Z,207.87
2018-12-21T21:05:05.922Z,195.40
2018-12-21T21:07:33.445Z,190.43
2018-12-21T21:10:00.951Z,199.80
2018-12-21T21:12:28.509Z,207.27
2018-12-21T21:14:56.035Z,207.13
2018-12-21T21:17:23.551Z,216.40
2018-12-21T21:19:51.072Z,221.60
2018-12-21T21:22:18.594Z,217.57
2018-12-21T21:24:46.114Z,216.17
2018-12-21T21:27:13.629Z,212.20
2018-12-21T21:29:41.146Z,238.90
2018-12-21T21:32:08.669Z,231.10
2018-12-21T21:34:36.166Z,226.67
2018-12-21T21:37:03.683Z,225.97
2018-12-21T21:39:31.179Z,224.80
2018-12-21T21:41:58.690Z,228.93
2018-12-21T21:44:26.202Z,239.43
2018-12-21T21:46:53.708Z,252.73
2018-12-21T21:49:21.222Z,247.70
2018-12-21T21:51:48.850Z,242.10
2018-12-21T21:54:16.370Z,230.50
2018-12-21T21:56:43.914Z,229.53
2018-12-21T21:59:11.436Z,225.97
2018-12-21T22:01:38.945Z,265.43
2018-12-21T22:04:06.484Z,247.53
2018-12-21T22:06:33.994Z,241.07
2018-12-21T22:09:02.185Z,239.90
2018-12-21T22:11:29.707Z,220.83
2018-12-21T22:13:57.217Z,241.23
2018-12-21T22:16:24.744Z,246.60
2018-12-21T22:18:52.259Z,228.57
2018-12-21T22:21:19.802Z,229.20
2018-12-21T22:23:47.399Z,229.20
2018-12-21T22:26:15.099Z,225.43
2018-12-21T22:28:42.598Z,226.10
2018-12-21T22:31:10.137Z,218.77
2018-12-21T22:33:37.652Z,214.53
2018-12-21T22:36:05.183Z,212.07
2018-12-21T22:38:32.693Z,211.57
2018-12-21T22:41:00.358Z,254.37
2018-12-21T22:43:27.981Z,254.57
2018-12-21T22:45:55.481Z,239.27
2018-12-21T22:48:23.027Z,228.23
2018-12-21T22:50:50.532Z,226.40
2018-12-21T22:53:18.041Z,220.23
2018-12-21T22:55:45.696Z,221.77
2018-12-21T22:58:13.211Z,218.07
2018-12-21T23:00:40.720Z,232.20
2018-12-21T23:03:08.237Z,225.30
2018-12-21T23:05:35.773Z,260.00
2018-12-21T23:08:03.358Z,233.80
2018-12-21T23:10:31.150Z,236.67
2018-12-21T23:12:58.683Z,225.87
2018-12-21T23:15:26.216Z,221.43
2018-12-21T23:17:53.730Z,217.93
2018-12-21T23:20:21.223Z,210.50
2018-12-21T23:22:48.803Z,206.17
2018-12-21T23:25:16.786Z,231.97
2018-12-21T23:27:44.334Z,267.27
2018-12-21T23:30:12.721Z,243.60
2018-12-21T23:32:40.235Z,240.40
2018-12-21T23:35:07.738Z,230.17
2018-12-21T23:37:35.277Z,224.10
2018-12-21T23:40:03.141Z,236.10
2018-12-21T23:42:30.669Z,263.87
2018-12-21T23:44:58.349Z,258.50
2018-12-21T23:47:25.851Z,258.33
2018-12-21T23:49:53.376Z,254.03
2018-12-21T23:52:20.963Z,241.43
2018-12-21T23:54:48.533Z,229.33
2018-12-21T23:57:16.343Z,225.50
2018-12-21T23:59:43.854Z,208.57
